KHVN

Tweed-New Haven Airport

New Haven, Connecticut, USA
METAR KHVN 170753Z AUTO 33004KT 10SM BKN055 M07/M12 A3025 RMK AO2 SLP243 T10721117
Observed Flight Rules
Dec-17 @ 07:53 UTC (22 minutes ago) Visual Flight Rules
Wind Visibility Clouds
330° at 4 knots 10 miles
  • Broken at 5,500' AGL
Temperatures Readings
Current -7°C / 19°F
Dewpoint -12°C / 10°F
Humidity 68%
Altimeter 30.25" Hg
Pressure 1024.3 hPa
Elevation 4
METAR KHVN 170753Z AUTO 33004KT 10SM BKN055 M07/M12 A3025 RMK AO2 SLP243 T10721117
Observed Flight Rules
Dec-17 @ 07:53 UTC
(22 minutes ago)
VFR
Wind Visibility
330° at 4 knots 10 miles
Clouds
  • Broken at 5,500' AGL
Temperature Dewpoint
-7°C / 19°F -12°C / 10°F
Humidity Altimeter Pressure
68% 30.25" Hg 1024.3 hPa